createdAt,value
2022-09-13T00:02:53.144Z,31.35
2022-09-13T00:07:59.986Z,22.27
2022-09-13T00:13:08.887Z,24.95
2022-09-13T00:18:12.485Z,31.20
2022-09-13T00:23:15.908Z,28.52
2022-09-13T00:28:19.261Z,29.83
2022-09-13T00:33:22.732Z,23.27
2022-09-13T00:38:26.132Z,38.78
2022-09-13T00:43:45.270Z,24.88
2022-09-13T00:48:53.406Z,28.48
2022-09-13T00:54:00.090Z,23.48
2022-09-13T00:59:13.288Z,19.70
2022-09-13T01:04:19.763Z,25.40
2022-09-13T01:09:24.196Z,29.83
2022-09-13T01:14:28.300Z,38.78
2022-09-13T01:19:32.261Z,27.05
2022-09-13T01:24:54.107Z,34.28
2022-09-13T01:30:12.903Z,26.02
2022-09-13T01:35:21.927Z,22.13
2022-09-13T01:41:04.888Z,31.67
2022-09-13T01:46:31.718Z,27.42
2022-09-13T01:51:44.385Z,26.42
2022-09-13T02:02:11.918Z,27.77
2022-09-13T02:07:22.537Z,29.63
2022-09-13T02:12:32.147Z,28.13
2022-09-13T02:17:42.948Z,31.35
2022-09-13T02:22:52.544Z,35.88
2022-09-13T02:28:02.588Z,29.63
2022-09-13T02:33:32.173Z,34.97
2022-09-13T02:38:49.306Z,28.33
2022-09-13T02:44:13.435Z,26.92
2022-09-13T02:49:31.683Z,24.20
2022-09-13T02:54:53.277Z,29.20
2022-09-13T02:59:57.436Z,24.88
2022-09-13T03:05:02.160Z,21.67
2022-09-13T03:10:09.808Z,34.45
2022-09-13T03:15:36.657Z,28.85
2022-09-13T03:21:06.000Z,33.42
2022-09-13T03:26:40.106Z,25.83
2022-09-13T03:32:02.909Z,25.58
2022-09-13T03:37:36.600Z,32.88
2022-09-13T03:42:43.123Z,38.53
2022-09-13T03:47:48.792Z,22.88
2022-09-13T03:52:58.703Z,27.17
2022-09-13T03:58:10.278Z,28.33
2022-09-13T04:03:16.813Z,40.10
2022-09-13T04:08:20.162Z,25.23
2022-09-13T04:13:23.773Z,29.38
2022-09-13T04:18:27.206Z,30.63
2022-09-13T04:23:31.194Z,47.92
2022-09-13T04:28:34.660Z,30.92
2022-09-13T04:33:39.199Z,22.73
2022-09-13T04:38:43.145Z,32.75
2022-09-13T04:43:50.622Z,33.83
2022-09-13T04:48:54.320Z,37.08
2022-09-13T04:53:58.910Z,43.65
2022-09-13T04:59:02.275Z,25.88
2022-09-13T05:04:07.121Z,26.20
2022-09-13T05:09:14.633Z,36.50
2022-09-13T05:14:18.069Z,31.00
2022-09-13T05:19:21.245Z,28.67
2022-09-13T05:24:25.127Z,35.95
2022-09-13T05:29:28.680Z,22.67
2022-09-13T05:34:31.931Z,32.10
2022-09-13T05:39:48.819Z,33.67
2022-09-13T05:44:59.647Z,29.83
2022-09-13T05:50:13.546Z,46.95
2022-09-13T05:55:23.139Z,33.33
2022-09-13T06:00:26.540Z,25.63
2022-09-13T06:05:32.000Z,28.70
2022-09-13T06:10:36.624Z,36.38
2022-09-13T06:15:43.270Z,38.90
2022-09-13T06:20:47.971Z,29.90
2022-09-13T06:25:51.480Z,31.48
2022-09-13T06:31:04.452Z,46.67
2022-09-13T06:36:16.367Z,29.52
2022-09-13T06:41:24.348Z,25.92
2022-09-13T06:46:33.947Z,36.65
2022-09-13T06:51:37.605Z,29.08
2022-09-13T06:56:40.848Z,26.13
2022-09-13T07:01:44.755Z,45.42
2022-09-13T07:06:49.971Z,31.80
2022-09-13T07:11:55.658Z,33.42
2022-09-13T07:16:59.293Z,38.97
2022-09-13T07:22:02.592Z,27.83
2022-09-13T07:27:05.927Z,28.38
2022-09-13T07:32:09.904Z,33.95
2022-09-13T07:37:13.395Z,39.33
2022-09-13T07:42:17.010Z,45.15
2022-09-13T07:47:20.278Z,38.47
2022-09-13T07:52:23.825Z,24.15
2022-09-13T07:57:27.931Z,32.75
2022-09-13T08:02:31.383Z,32.15
2022-09-13T08:07:36.290Z,22.00
2022-09-13T08:12:41.786Z,30.33
2022-09-13T08:17:45.822Z,36.70
2022-09-13T08:22:49.232Z,34.60
2022-09-13T08:27:52.837Z,33.05
2022-09-13T08:32:56.079Z,26.17
2022-09-13T08:38:00.640Z,30.75
2022-09-13T08:43:12.476Z,38.78
2022-09-13T08:48:21.036Z,27.55
2022-09-13T08:53:24.232Z,34.05
2022-09-13T08:58:43.744Z,40.47
2022-09-13T09:03:57.987Z,19.67
2022-09-13T09:09:08.735Z,32.17
2022-09-13T09:14:33.259Z,25.57
2022-09-13T09:19:39.062Z,44.58
2022-09-13T09:24:47.847Z,38.05
2022-09-13T09:29:55.169Z,31.20
2022-09-13T09:35:07.085Z,32.97
2022-09-13T09:40:14.036Z,29.90
2022-09-13T09:45:27.849Z,19.17
2022-09-13T09:50:38.896Z,21.75
2022-09-13T09:56:23.661Z,38.47
2022-09-13T10:01:33.158Z,19.50
2022-09-13T10:06:41.398Z,28.02
2022-09-13T10:11:53.945Z,28.73
2022-09-13T10:17:21.726Z,30.70
2022-09-13T10:22:26.724Z,28.88
2022-09-13T10:27:38.662Z,24.45
2022-09-13T10:32:46.172Z,22.15
2022-09-13T10:37:50.070Z,27.80
2022-09-13T10:42:57.500Z,23.80
2022-09-13T10:48:14.835Z,32.00
2022-09-13T10:53:36.390Z,35.17
2022-09-13T10:58:39.700Z,53.15
2022-09-13T11:03:48.898Z,28.20
2022-09-13T11:09:10.620Z,37.90
2022-09-13T11:14:27.109Z,51.10
2022-09-13T11:19:30.849Z,53.33
2022-09-13T11:24:34.297Z,45.33
2022-09-13T11:30:10.416Z,34.42
2022-09-13T11:35:35.685Z,31.55
2022-09-13T11:40:47.536Z,29.00
2022-09-13T11:46:06.300Z,41.08
2022-09-13T11:51:35.895Z,22.40
2022-09-13T11:57:02.937Z,22.75
2022-09-13T12:02:32.617Z,19.92
2022-09-13T12:08:11.116Z,40.95
2022-09-13T12:13:25.132Z,29.70
2022-09-13T12:18:31.879Z,33.78
2022-09-13T12:23:48.033Z,20.15
2022-09-13T12:29:16.915Z,23.75
2022-09-13T12:34:30.442Z,22.45
2022-09-13T12:39:42.676Z,27.67
2022-09-13T12:45:14.841Z,52.72
2022-09-13T12:50:44.668Z,46.65
2022-09-13T12:56:03.710Z,28.25
2022-09-13T13:01:12.601Z,37.30
2022-09-13T13:06:33.921Z,25.25
2022-09-13T13:11:46.879Z,29.60
2022-09-13T13:16:50.739Z,15.18
2022-09-13T13:21:54.267Z,15.70
2022-09-13T13:26:59.628Z,12.98
2022-09-13T13:32:02.992Z,13.98
2022-09-13T13:37:28.563Z,13.43
2022-09-13T13:42:32.689Z,15.23
2022-09-13T13:47:35.841Z,11.98
2022-09-13T13:52:48.576Z,19.08
2022-09-13T13:58:04.670Z,15.70
2022-09-13T14:03:25.828Z,22.70
2022-09-13T14:14:05.650Z,18.02
2022-09-13T14:19:15.147Z,11.23
2022-09-13T14:24:21.853Z,11.60
2022-09-13T14:29:25.869Z,21.25
2022-09-13T14:34:35.034Z,18.88
2022-09-13T14:39:38.594Z,11.38
2022-09-13T14:44:46.891Z,10.65
2022-09-13T14:50:11.772Z,14.45
2022-09-13T14:55:24.423Z,12.05
2022-09-13T15:00:48.791Z,15.05
2022-09-13T15:06:26.937Z,10.40
2022-09-13T15:11:36.196Z,17.73
2022-09-13T15:17:11.219Z,9.00
2022-09-13T15:22:19.309Z,11.90
2022-09-13T15:27:43.482Z,11.65
2022-09-13T15:32:46.779Z,13.10
2022-09-13T15:38:00.823Z,11.70
2022-09-13T15:43:04.026Z,8.95
2022-09-13T15:48:08.031Z,8.60
2022-09-13T15:53:12.189Z,11.02
2022-09-13T15:58:15.684Z,11.93
2022-09-13T16:03:18.950Z,16.08
2022-09-13T16:08:22.154Z,10.00
2022-09-13T16:13:25.437Z,8.73
2022-09-13T16:18:28.812Z,11.52
2022-09-13T16:23:32.463Z,13.38
2022-09-13T16:28:36.050Z,10.70
2022-09-13T16:33:39.420Z,8.52
2022-09-13T16:38:42.706Z,10.40
2022-09-13T16:43:45.852Z,10.35
2022-09-13T16:48:56.285Z,13.70
2022-09-13T16:53:59.850Z,15.05
2022-09-13T16:59:03.123Z,8.57
2022-09-13T17:04:06.404Z,17.27
2022-09-13T17:09:10.067Z,11.02
2022-09-13T17:14:14.610Z,10.75
2022-09-13T17:19:28.533Z,7.07
2022-09-13T17:24:32.164Z,10.07
2022-09-13T17:29:36.254Z,14.52
2022-09-13T17:34:39.579Z,13.13
2022-09-13T17:39:43.628Z,16.13
2022-09-13T17:44:47.325Z,16.33
2022-09-13T17:49:50.557Z,8.50
2022-09-13T17:54:54.006Z,10.93
2022-09-13T17:59:58.909Z,10.85
2022-09-13T18:05:06.450Z,10.48
2022-09-13T18:10:32.292Z,12.52
2022-09-13T18:15:35.403Z,11.07
2022-09-13T18:20:40.744Z,11.75
2022-09-13T18:25:44.213Z,13.07
2022-09-13T18:30:59.964Z,14.10
2022-09-13T18:36:04.954Z,15.20
2022-09-13T18:41:09.455Z,16.73
2022-09-13T18:46:16.059Z,11.15
2022-09-13T18:51:28.004Z,17.53
2022-09-13T18:56:32.239Z,21.75
2022-09-13T19:01:38.593Z,13.75
2022-09-13T19:06:47.143Z,22.20
2022-09-13T19:11:53.042Z,17.85
2022-09-13T19:16:59.755Z,15.88
2022-09-13T19:22:04.577Z,19.85
2022-09-13T19:27:08.385Z,12.07
2022-09-13T19:32:12.030Z,18.63
2022-09-13T19:37:15.468Z,15.95
2022-09-13T19:42:20.288Z,24.40
2022-09-13T19:48:12.935Z,18.38
2022-09-13T19:52:47.143Z,16.33
2022-09-13T19:57:50.645Z,16.83
2022-09-13T20:02:55.237Z,20.48
2022-09-13T20:07:58.548Z,18.98
2022-09-13T20:13:01.579Z,21.90
2022-09-13T20:18:04.859Z,15.98
2022-09-13T20:23:09.061Z,22.23
2022-09-13T20:28:12.981Z,21.52
2022-09-13T20:33:16.443Z,15.30
2022-09-13T20:38:20.690Z,16.35
2022-09-13T20:43:24.167Z,16.27
2022-09-13T20:48:27.665Z,14.57
2022-09-13T20:53:32.601Z,19.50
2022-09-13T20:58:37.377Z,16.55
2022-09-13T21:03:43.263Z,13.43
2022-09-13T21:08:48.897Z,17.55
2022-09-13T21:13:55.638Z,15.52
2022-09-13T21:18:59.120Z,12.23
2022-09-13T21:24:03.361Z,14.27
2022-09-13T21:29:07.279Z,16.77
2022-09-13T21:34:16.842Z,14.25
2022-09-13T21:39:20.384Z,16.00
2022-09-13T21:44:23.752Z,15.70
2022-09-13T21:49:27.297Z,17.98
2022-09-13T21:54:31.133Z,17.67
2022-09-13T21:59:34.524Z,21.35
2022-09-13T22:04:39.813Z,16.85
2022-09-13T22:09:48.118Z,17.33
2022-09-13T22:14:53.893Z,19.88
2022-09-13T22:19:56.982Z,17.63
2022-09-13T22:25:00.130Z,18.90
2022-09-13T22:30:05.057Z,15.32
2022-09-13T22:35:09.091Z,16.95
2022-09-13T22:40:12.805Z,17.35
2022-09-13T22:45:16.418Z,13.07
2022-09-13T22:50:20.017Z,15.52
2022-09-13T22:55:23.580Z,14.80
2022-09-13T23:00:28.644Z,14.20
2022-09-13T23:05:32.293Z,15.95
2022-09-13T23:10:35.697Z,9.43
2022-09-13T23:15:39.111Z,14.70
2022-09-13T23:20:42.743Z,11.60
2022-09-13T23:25:46.211Z,18.70
2022-09-13T23:30:50.352Z,14.07
2022-09-13T23:35:57.983Z,19.08
2022-09-13T23:41:02.408Z,11.98
2022-09-13T23:46:06.473Z,13.95
2022-09-13T23:51:12.419Z,13.10
2022-09-13T23:56:15.647Z,12.15
